Terminal Aerodrome Forecast
Issued by NWS

Home | Current Version | Previous Version | Text Only | Print | Product List | Glossary On
Versions: 1 2 3 4 5 6 7 8 9 10 11 12 13 14 15 16 17 18 19
000
FTUS43 KBIS 291700
TAFDIK
TAF
KDIK 291726Z 2918/3018 34015KT P6SM SCT020 BKN080
      TEMPO 2918/2921 BKN020
     FM292300 03009KT P6SM SCT080
     FM300300 VRB05KT P6SM VCFG SKC=

USA.gov is the U.S. government's official web portal to all federal, state and local government web resources and services.